Time,TemperatureF,DewpointF,PressureIn,WindDirection,WindDirectionDegrees,WindSpeedMPH,WindSpeedGustMPH,Humidity,HourlyPrecipIn,Conditions,Clouds,dailyrainin,SoftwareType,DateUTC
2013-06-05 00:01:00,58.5,19.8,29.29,NNW,332,0.0,0.0,22,0.00,,---,0.00,VWS V14.01,2013-06-05 04:01:00,
2013-06-05 00:02:00,58.3,16.2,29.29,NNW,332,0.0,0.0,19,0.00,,---,0.00,VWS V14.01,2013-06-05 04:02:00,
2013-06-05 00:05:00,58.3,16.2,29.29,NNW,332,0.0,0.0,19,0.00,,---,0.00,VWS V14.01,2013-06-05 04:05:00,
2013-06-05 00:10:00,58.3,16.2,29.29,NNW,332,0.0,0.0,19,0.00,,---,0.00,VWS V14.01,2013-06-05 04:10:00,
2013-06-05 00:11:00,58.3,16.2,29.29,NNW,332,0.0,0.0,19,0.00,,---,0.00,VWS V14.01,2013-06-05 04:11:00,
2013-06-05 00:15:00,58.3,16.2,29.29,NNW,332,0.0,0.0,19,0.00,,---,0.00,VWS V14.01,2013-06-05 04:15:00,
2013-06-05 00:20:00,58.1,16.1,29.29,NNW,332,0.0,0.0,19,0.00,,---,0.00,VWS V14.01,2013-06-05 04:20:00,
2013-06-05 00:25:00,58.1,16.1,29.29,NNW,332,0.0,0.0,19,0.00,,---,0.00,VWS V14.01,2013-06-05 04:25:00,
2013-06-05 00:30:00,58.1,16.1,29.29,NNW,335,0.0,0.0,19,0.00,,---,0.00,VWS V14.01,2013-06-05 04:30:00,
2013-06-05 00:35:00,57.9,15.9,29.29,NNW,335,0.0,0.0,19,0.00,,---,0.00,VWS V14.01,2013-06-05 04:35:00,
2013-06-05 00:40:00,57.9,15.9,29.29,NNW,335,0.0,0.0,19,0.00,,---,0.00,VWS V14.01,2013-06-05 04:40:00,
2013-06-05 00:45:00,57.9,19.3,29.29,NNW,335,0.0,0.0,22,0.00,,---,0.00,VWS V14.01,2013-06-05 04:45:00,
2013-06-05 00:50:00,57.6,19.0,29.29,NNW,335,0.0,0.0,22,0.00,,---,0.00,VWS V14.01,2013-06-05 04:50:00,
2013-06-05 00:55:00,57.6,15.6,29.29,NNW,335,0.0,0.0,19,0.00,,---,0.00,VWS V14.01,2013-06-05 04:55:00,
2013-06-05 01:00:00,57.6,15.6,29.29,NNW,335,0.0,0.0,19,0.00,,---,0.00,VWS V14.01,2013-06-05 05:00:00,
2013-06-05 01:05:00,57.6,19.0,29.29,NNW,335,0.0,0.0,22,0.00,,---,0.00,VWS V14.01,2013-06-05 05:05:00,
2013-06-05 01:10:00,57.4,18.9,29.29,NNW,335,0.0,0.0,22,0.00,,---,0.00,VWS V14.01,2013-06-05 05:10:00,
2013-06-05 01:15:00,57.4,15.5,29.29,NNW,335,0.0,0.0,19,0.00,,---,0.00,VWS V14.01,2013-06-05 05:15:00,
2013-06-05 01:20:00,57.4,18.9,29.29,NNW,335,0.0,0.0,22,0.00,,---,0.00,VWS V14.01,2013-06-05 05:20:00,
2013-06-05 01:25:00,57.2,15.3,29.29,NNW,335,0.0,0.0,19,0.00,,---,0.00,VWS V14.01,2013-06-05 05:25:00,
2013-06-05 01:30:00,57.0,18.6,29.29,NNW,335,0.0,0.0,22,0.00,,---,0.00,VWS V14.01,2013-06-05 05:30:00,
2013-06-05 01:35:00,56.8,21.4,29.29,NNW,335,0.0,0.0,25,0.00,,---,0.00,VWS V14.01,2013-06-05 05:35:00,
2013-06-05 01:40:00,56.8,21.4,29.29,NNW,335,0.0,0.0,25,0.00,,---,0.00,VWS V14.01,2013-06-05 05:40:00,
2013-06-05 01:45:00,56.8,21.4,29.29,NNW,335,0.0,0.0,25,0.00,,---,0.00,VWS V14.01,2013-06-05 05:45:00,
2013-06-05 01:50:00,56.8,21.4,29.29,NNW,335,0.0,0.0,25,0.00,,---,0.00,VWS V14.01,2013-06-05 05:50:00,
2013-06-05 01:55:00,56.7,22.2,29.29,NNW,335,0.0,0.0,26,0.00,,---,0.00,VWS V14.01,2013-06-05 05:55:00,
2013-06-05 02:00:00,56.7,24.8,29.29,NNW,335,0.0,0.0,29,0.00,,---,0.00,VWS V14.01,2013-06-05 06:00:00,
2013-06-05 02:06:00,56.3,25.3,29.29,NNW,335,0.0,0.0,30,0.00,,---,0.00,VWS V14.01,2013-06-05 06:06:00,
2013-06-05 02:11:00,56.3,24.5,29.29,NNW,340,0.0,0.0,29,0.00,,---,0.00,VWS V14.01,2013-06-05 06:11:00,
2013-06-05 02:16:00,56.5,25.4,29.29,NNW,340,0.0,0.0,30,0.00,,---,0.00,VWS V14.01,2013-06-05 06:16:00,
2013-06-05 02:21:00,56.5,25.4,29.29,NNW,339,0.0,0.0,30,0.00,,---,0.00,VWS V14.01,2013-06-05 06:21:00,
2013-06-05 02:26:00,56.5,25.4,29.29,North,0,0.0,0.0,30,0.00,,---,0.00,VWS V14.01,2013-06-05 06:26:00,
2013-06-05 02:31:00,56.5,24.6,29.29,North,351,0.0,0.0,29,0.00,,---,0.00,VWS V14.01,2013-06-05 06:31:00,
2013-06-05 02:36:00,56.7,24.8,29.29,North,351,0.0,2.7,29,0.00,,---,0.00,VWS V14.01,2013-06-05 06:36:00,
2013-06-05 02:41:00,56.5,23.8,29.29,North,351,0.0,0.0,28,0.00,,---,0.00,VWS V14.01,2013-06-05 06:41:00,
2013-06-05 02:46:00,56.5,25.4,29.29,North,10,0.0,4.0,30,0.00,,---,0.00,VWS V14.01,2013-06-05 06:46:00,
2013-06-05 02:51:00,56.5,24.6,29.29,North,351,0.0,3.1,29,0.00,,---,0.00,VWS V14.01,2013-06-05 06:51:00,
2013-06-05 02:56:00,56.5,24.6,29.29,North,0,0.0,3.1,29,0.00,,---,0.00,VWS V14.01,2013-06-05 06:56:00,
2013-06-05 03:01:00,56.8,24.9,29.29,North,0,3.6,3.6,29,0.00,,---,0.00,VWS V14.01,2013-06-05 07:01:00,
2013-06-05 03:06:00,56.8,24.9,29.29,North,351,4.0,4.0,29,0.00,,---,0.00,VWS V14.01,2013-06-05 07:06:00,
2013-06-05 03:11:00,56.8,24.9,29.29,NNW,330,2.7,3.1,29,0.00,,---,0.00,VWS V14.01,2013-06-05 07:11:00,
2013-06-05 03:16:00,57.0,25.9,29.29,NNW,344,0.0,0.0,30,0.00,,---,0.00,VWS V14.01,2013-06-05 07:16:00,
2013-06-05 03:21:00,56.8,26.5,29.29,North,0,0.0,2.7,31,0.00,,---,0.00,VWS V14.01,2013-06-05 07:21:00,
2013-06-05 03:26:00,56.8,24.9,29.29,North,351,0.0,0.0,29,0.00,,---,0.00,VWS V14.01,2013-06-05 07:26:00,
2013-06-05 03:31:00,56.8,27.3,29.29,North,351,0.0,0.0,32,0.00,,---,0.00,VWS V14.01,2013-06-05 07:31:00,
2013-06-05 03:36:00,56.7,26.4,29.29,ESE,107,0.0,0.0,31,0.00,,---,0.00,VWS V14.01,2013-06-05 07:36:00,
2013-06-05 03:41:00,56.7,26.4,29.29,NNW,343,0.0,0.0,31,0.00,,---,0.00,VWS V14.01,2013-06-05 07:41:00,
2013-06-05 03:46:00,56.5,26.2,29.29,North,351,0.0,0.0,31,0.00,,---,0.00,VWS V14.01,2013-06-05 07:46:00,
2013-06-05 03:51:00,56.5,27.0,29.29,NNW,332,0.0,4.0,32,0.00,,---,0.00,VWS V14.01,2013-06-05 07:51:00,
2013-06-05 03:56:00,56.5,26.2,29.29,North,351,0.0,3.1,31,0.00,,---,0.00,VWS V14.01,2013-06-05 07:56:00,
2013-06-05 04:01:00,56.3,26.1,29.29,SSW,192,0.0,0.0,31,0.00,,---,0.00,VWS V14.01,2013-06-05 08:01:00,
2013-06-05 04:06:00,56.3,28.3,29.29,NE,34,0.0,0.0,34,0.00,,---,0.00,VWS V14.01,2013-06-05 08:06:00,
2013-06-05 04:11:00,56.1,28.9,29.29,NE,34,0.0,0.0,35,0.00,,---,0.00,VWS V14.01,2013-06-05 08:11:00,
2013-06-05 04:16:00,55.9,28.7,29.29,NNE,27,0.0,0.0,35,0.00,,---,0.00,VWS V14.01,2013-06-05 08:16:00,
2013-06-05 04:21:00,55.8,28.5,29.29,NNE,29,0.0,0.0,35,0.00,,---,0.00,VWS V14.01,2013-06-05 08:21:00,
2013-06-05 04:26:00,55.8,27.8,29.29,NNE,29,0.0,0.0,34,0.00,,---,0.00,VWS V14.01,2013-06-05 08:26:00,
2013-06-05 04:31:00,55.6,27.7,29.29,NNE,29,0.0,0.0,34,0.00,,---,0.00,VWS V14.01,2013-06-05 08:31:00,
2013-06-05 04:36:00,55.4,28.2,29.29,NNE,28,0.0,0.0,35,0.00,,---,0.00,VWS V14.01,2013-06-05 08:36:00,
2013-06-05 04:41:00,55.2,28.1,29.29,NNE,28,0.0,0.0,35,0.00,,---,0.00,VWS V14.01,2013-06-05 08:41:00,
2013-06-05 04:46:00,55.0,27.2,29.29,NNW,346,0.0,0.0,34,0.00,,---,0.00,VWS V14.01,2013-06-05 08:46:00,
2013-06-05 04:51:00,55.0,25.7,29.29,NNW,346,0.0,0.0,32,0.00,,---,0.00,VWS V14.01,2013-06-05 08:51:00,
2013-06-05 04:56:00,55.0,27.9,29.29,NNW,347,0.0,0.0,35,0.00,,---,0.00,VWS V14.01,2013-06-05 08:56:00,
2013-06-05 05:01:00,55.0,27.9,29.32,NNW,340,0.0,0.0,35,0.00,,---,0.00,VWS V14.01,2013-06-05 09:01:00,
2013-06-05 05:06:00,55.0,27.9,29.32,NNW,340,0.0,0.0,35,0.00,,---,0.00,VWS V14.01,2013-06-05 09:06:00,
2013-06-05 05:11:00,55.0,27.9,29.32,NNW,329,0.0,0.0,35,0.00,,---,0.00,VWS V14.01,2013-06-05 09:11:00,
2013-06-05 05:16:00,55.0,28.6,29.32,NNW,330,0.0,0.0,36,0.00,,---,0.00,VWS V14.01,2013-06-05 09:16:00,
2013-06-05 05:21:00,55.0,27.9,29.32,NNW,329,0.0,0.0,35,0.00,,---,0.00,VWS V14.01,2013-06-05 09:21:00,
2013-06-05 05:26:00,55.0,27.9,29.32,NNW,328,0.0,0.0,35,0.00,,---,0.00,VWS V14.01,2013-06-05 09:26:00,
2013-06-05 05:31:00,55.0,27.9,29.32,ESE,104,0.0,0.0,35,0.00,,---,0.00,VWS V14.01,2013-06-05 09:31:00,
2013-06-05 05:36:00,54.9,26.3,29.32,NE,36,0.0,0.0,33,0.00,,---,0.00,VWS V14.01,2013-06-05 09:36:00,
2013-06-05 05:41:00,54.7,25.4,29.32,NE,36,0.0,0.0,32,0.00,,---,0.00,VWS V14.01,2013-06-05 09:41:00,
2013-06-05 05:46:00,54.5,27.4,29.32,NE,36,0.0,0.0,35,0.00,,---,0.00,VWS V14.01,2013-06-05 09:46:00,
2013-06-05 05:51:00,54.3,28.0,29.32,NNE,33,0.0,0.0,36,0.00,,---,0.00,VWS V14.01,2013-06-05 09:51:00,
2013-06-05 05:56:00,54.3,28.6,29.32,NNE,32,0.0,0.0,37,0.00,,---,0.00,VWS V14.01,2013-06-05 09:56:00,
2013-06-05 06:01:00,54.5,28.8,29.32,NW,307,0.0,0.0,37,0.00,,---,0.00,VWS V14.01,2013-06-05 10:01:00,
2013-06-05 06:06:00,54.7,28.9,29.32,NW,306,0.0,0.0,37,0.00,,---,0.00,VWS V14.01,2013-06-05 10:06:00,
2013-06-05 06:11:00,54.9,29.1,29.32,NW,307,0.0,0.0,37,0.00,,---,0.00,VWS V14.01,2013-06-05 10:11:00,
2013-06-05 06:16:00,55.0,29.3,29.32,NW,307,0.0,0.0,37,0.00,,---,0.00,VWS V14.01,2013-06-05 10:16:00,
2013-06-05 06:21:00,55.2,30.1,29.32,NE,55,0.0,0.0,38,0.00,,---,0.00,VWS V14.01,2013-06-05 10:21:00,
2013-06-05 06:26:00,55.4,30.2,29.32,NE,55,0.0,0.0,38,0.00,,---,0.00,VWS V14.01,2013-06-05 10:26:00,
2013-06-05 06:31:00,55.6,30.4,29.35,NE,55,0.0,0.0,38,0.00,,---,0.00,VWS V14.01,2013-06-05 10:31:00,
2013-06-05 06:36:00,55.9,30.7,29.35,NE,55,0.0,2.7,38,0.00,,---,0.00,VWS V14.01,2013-06-05 10:36:00,
2013-06-05 06:41:00,56.1,30.2,29.35,SE,129,0.0,0.0,37,0.00,,---,0.00,VWS V14.01,2013-06-05 10:41:00,
2013-06-05 06:46:00,56.5,29.9,29.35,SE,141,0.0,0.0,36,0.00,,---,0.00,VWS V14.01,2013-06-05 10:46:00,
2013-06-05 06:51:00,56.7,29.3,29.35,North,2,0.0,0.0,35,0.00,,---,0.00,VWS V14.01,2013-06-05 10:51:00,
2013-06-05 06:56:00,56.8,29.5,29.35,North,2,0.0,0.0,35,0.00,,---,0.00,VWS V14.01,2013-06-05 10:56:00,
2013-06-05 07:01:00,57.0,29.7,29.35,NNE,17,2.7,2.7,35,0.00,,---,0.00,VWS V14.01,2013-06-05 11:01:00,
2013-06-05 07:06:00,57.2,29.1,29.35,NE,46,0.0,0.0,34,0.00,,---,0.00,VWS V14.01,2013-06-05 11:06:00,
2013-06-05 07:11:00,57.6,30.1,29.35,NE,50,0.0,0.0,35,0.00,,---,0.00,VWS V14.01,2013-06-05 11:11:00,
2013-06-05 07:16:00,57.9,30.5,29.35,NE,55,0.0,0.0,35,0.00,,---,0.00,VWS V14.01,2013-06-05 11:16:00,
2013-06-05 07:21:00,58.1,28.4,29.35,ESE,112,0.0,0.0,32,0.00,,---,0.00,VWS V14.01,2013-06-05 11:21:00,
2013-06-05 07:26:00,58.6,28.1,29.35,NE,50,0.0,2.7,31,0.00,,---,0.00,VWS V14.01,2013-06-05 11:26:00,
2013-06-05 07:31:00,59.0,28.4,29.35,NE,50,0.0,0.0,31,0.00,,---,0.00,VWS V14.01,2013-06-05 11:31:00,
2013-06-05 07:36:00,59.4,28.7,29.35,NE,53,0.0,0.0,31,0.00,,---,0.00,VWS V14.01,2013-06-05 11:36:00,
2013-06-05 07:41:00,59.9,28.4,29.35,ENE,59,3.1,3.1,30,0.00,,---,0.00,VWS V14.01,2013-06-05 11:41:00,
2013-06-05 07:46:00,60.6,27.4,29.35,ENE,71,0.0,0.0,28,0.00,,---,0.00,VWS V14.01,2013-06-05 11:46:00,
2013-06-05 07:51:00,61.0,26.8,29.35,ENE,70,0.0,0.0,27,0.00,,---,0.00,VWS V14.01,2013-06-05 11:51:00,
2013-06-05 07:56:00,61.7,27.4,29.35,East,101,0.0,0.0,27,0.00,,---,0.00,VWS V14.01,2013-06-05 11:56:00,
2013-06-05 08:01:00,61.9,26.6,29.38,SE,146,0.0,0.0,26,0.00,,---,0.00,VWS V14.01,2013-06-05 12:01:00,
2013-06-05 08:07:00,62.1,26.8,29.38,ENE,75,0.0,0.0,26,0.00,,---,0.00,VWS V14.01,2013-06-05 12:07:00,
2013-06-05 08:12:00,62.8,27.4,29.38,ENE,68,2.7,3.6,26,0.00,,---,0.00,VWS V14.01,2013-06-05 12:12:00,
2013-06-05 08:17:00,63.3,26.9,29.38,ENE,73,0.0,0.0,25,0.00,,---,0.00,VWS V14.01,2013-06-05 12:17:00,
2013-06-05 08:22:00,63.9,26.4,29.38,East,80,0.0,3.6,24,0.00,,---,0.00,VWS V14.01,2013-06-05 12:22:00,
2013-06-05 08:27:00,64.2,26.7,29.38,ENE,75,0.0,0.0,24,0.00,,---,0.00,VWS V14.01,2013-06-05 12:27:00,
2013-06-05 08:32:00,64.4,25.8,29.38,East,84,2.7,2.7,23,0.00,,---,0.00,VWS V14.01,2013-06-05 12:32:00,
2013-06-05 08:37:00,64.9,26.3,29.38,East,97,0.0,0.0,23,0.00,,---,0.00,VWS V14.01,2013-06-05 12:37:00,
2013-06-05 08:42:00,65.5,26.7,29.38,East,100,0.0,0.0,23,0.00,,---,0.00,VWS V14.01,2013-06-05 12:42:00,
2013-06-05 08:47:00,65.8,27.0,29.38,East,99,0.0,0.0,23,0.00,,---,0.00,VWS V14.01,2013-06-05 12:47:00,
2013-06-05 08:52:00,66.2,27.3,29.38,SSE,161,0.0,2.7,23,0.00,,---,0.00,VWS V14.01,2013-06-05 12:52:00,
2013-06-05 08:57:00,66.7,26.7,29.38,SE,144,0.0,4.0,22,0.00,,---,0.00,VWS V14.01,2013-06-05 12:57:00,
2013-06-05 09:02:00,67.1,27.0,29.38,ENE,61,0.0,2.7,22,0.00,,---,0.00,VWS V14.01,2013-06-05 13:02:00,
2013-06-05 09:07:00,67.5,25.0,29.38,ENE,66,0.0,0.0,20,0.00,,---,0.00,VWS V14.01,2013-06-05 13:07:00,
2013-06-05 09:12:00,67.6,25.2,29.38,ESE,112,0.0,0.0,20,0.00,,---,0.00,VWS V14.01,2013-06-05 13:12:00,
2013-06-05 09:17:00,68.0,25.5,29.38,ESE,107,3.6,4.0,20,0.00,,---,0.00,VWS V14.01,2013-06-05 13:17:00,
2013-06-05 09:22:00,68.4,21.9,29.38,East,97,0.0,0.0,17,0.00,,---,0.00,VWS V14.01,2013-06-05 13:22:00,
2013-06-05 09:27:00,68.5,22.0,29.38,ENE,70,2.7,5.4,17,0.00,,---,0.00,VWS V14.01,2013-06-05 13:27:00,
2013-06-05 09:32:00,68.7,22.2,29.38,SSE,147,2.7,2.7,17,0.00,,---,0.00,VWS V14.01,2013-06-05 13:32:00,
2013-06-05 09:37:00,69.3,22.6,29.38,ENE,63,0.0,0.0,17,0.00,,---,0.00,VWS V14.01,2013-06-05 13:37:00,
2013-06-05 09:42:00,69.3,22.6,29.38,ESE,104,0.0,0.0,17,0.00,,---,0.00,VWS V14.01,2013-06-05 13:42:00,
2013-06-05 09:47:00,69.6,22.9,29.38,ESE,117,0.0,0.0,17,0.00,,---,0.00,VWS V14.01,2013-06-05 13:47:00,
2013-06-05 09:52:00,69.6,22.9,29.38,East,87,0.0,3.1,17,0.00,,---,0.00,VWS V14.01,2013-06-05 13:52:00,
2013-06-05 09:57:00,70.2,23.4,29.38,North,7,4.0,5.4,17,0.00,,---,0.00,VWS V14.01,2013-06-05 13:57:00,
2013-06-05 10:02:00,69.8,23.1,29.38,ENE,74,2.7,4.5,17,0.00,,---,0.00,VWS V14.01,2013-06-05 14:02:00,
2013-06-05 10:07:00,70.5,23.6,29.38,ESE,117,0.0,0.0,17,0.00,,---,0.00,VWS V14.01,2013-06-05 14:07:00,
2013-06-05 10:12:00,70.7,23.8,29.38,ESE,121,0.0,4.5,17,0.00,,---,0.00,VWS V14.01,2013-06-05 14:12:00,
2013-06-05 10:17:00,70.9,22.5,29.38,East,86,0.0,0.0,16,0.00,,---,0.00,VWS V14.01,2013-06-05 14:17:00,
2013-06-05 10:22:00,71.4,22.9,29.38,ESE,119,5.4,5.4,16,0.00,,---,0.00,VWS V14.01,2013-06-05 14:22:00,
2013-06-05 10:27:00,71.2,22.8,29.38,ESE,121,0.0,0.0,16,0.00,,---,0.00,VWS V14.01,2013-06-05 14:27:00,
2013-06-05 10:32:00,72.0,23.4,29.38,ESE,110,0.0,3.1,16,0.00,,---,0.00,VWS V14.01,2013-06-05 14:32:00,
2013-06-05 10:37:00,72.1,23.5,29.38,ESE,122,2.7,4.5,16,0.00,,---,0.00,VWS V14.01,2013-06-05 14:37:00,
2013-06-05 10:42:00,72.5,18.9,29.38,South,184,0.0,3.1,13,0.00,,---,0.00,VWS V14.01,2013-06-05 14:42:00,
2013-06-05 10:47:00,72.7,19.0,29.38,SE,139,3.6,3.6,13,0.00,,---,0.00,VWS V14.01,2013-06-05 14:47:00,
2013-06-05 10:52:00,73.2,24.4,29.38,ENE,75,0.0,3.6,16,0.00,,---,0.00,VWS V14.01,2013-06-05 14:52:00,
2013-06-05 10:57:00,73.2,24.4,29.38,ESE,105,0.0,4.0,16,0.00,,---,0.00,VWS V14.01,2013-06-05 14:57:00,
2013-06-05 11:02:00,73.9,25.0,29.38,SSE,147,3.1,3.6,16,0.00,,---,0.00,VWS V14.01,2013-06-05 15:02:00,
2013-06-05 11:07:00,73.8,19.9,29.38,NE,54,0.0,4.0,13,0.00,,---,0.00,VWS V14.01,2013-06-05 15:07:00,
2013-06-05 11:12:00,73.4,19.6,29.38,ENE,77,3.1,4.0,13,0.00,,---,0.00,VWS V14.01,2013-06-05 15:12:00,
2013-06-05 11:17:00,73.9,20.0,29.35,SE,126,0.0,4.0,13,0.00,,---,0.00,VWS V14.01,2013-06-05 15:17:00,
2013-06-05 11:22:00,73.8,19.9,29.35,ENE,60,3.6,3.6,13,0.00,,---,0.00,VWS V14.01,2013-06-05 15:22:00,
2013-06-05 11:27:00,73.8,19.9,29.35,East,88,4.0,5.4,13,0.00,,---,0.00,VWS V14.01,2013-06-05 15:27:00,
2013-06-05 11:32:00,74.3,20.3,29.35,ESE,104,0.0,3.6,13,0.00,,---,0.00,VWS V14.01,2013-06-05 15:32:00,
2013-06-05 11:37:00,74.5,20.5,29.35,East,85,3.1,4.0,13,0.00,,---,0.00,VWS V14.01,2013-06-05 15:37:00,
2013-06-05 11:42:00,74.7,20.6,29.35,ESE,106,0.0,4.9,13,0.00,,---,0.00,VWS V14.01,2013-06-05 15:42:00,
2013-06-05 11:47:00,75.4,21.2,29.35,SE,146,0.0,2.7,13,0.00,,---,0.00,VWS V14.01,2013-06-05 15:47:00,
2013-06-05 11:52:00,75.2,21.0,29.35,ESE,120,0.0,0.0,13,0.00,,---,0.00,VWS V14.01,2013-06-05 15:52:00,
2013-06-05 11:57:00,75.6,21.3,29.35,South,173,0.0,4.0,13,0.00,,---,0.00,VWS V14.01,2013-06-05 15:57:00,
2013-06-05 12:02:00,75.2,21.0,29.35,South,170,0.0,0.0,13,0.00,,---,0.00,VWS V14.01,2013-06-05 16:02:00,
2013-06-05 12:07:00,75.7,21.5,29.35,North,351,0.0,5.4,13,0.00,,---,0.00,VWS V14.01,2013-06-05 16:07:00,
2013-06-05 12:12:00,75.2,24.4,29.35,SE,124,0.0,3.6,15,0.00,,---,0.00,VWS V14.01,2013-06-05 16:12:00,
2013-06-05 12:17:00,75.2,24.4,29.35,NNE,17,0.0,0.0,15,0.00,,---,0.00,VWS V14.01,2013-06-05 16:17:00,
2013-06-05 12:22:00,73.6,19.8,29.35,ENE,57,3.1,5.4,13,0.00,,---,0.00,VWS V14.01,2013-06-05 16:22:00,
2013-06-05 12:27:00,71.6,19.9,29.35,North,10,0.0,0.0,14,0.00,,---,0.00,VWS V14.01,2013-06-05 16:27:00,
2013-06-05 12:32:00,70.9,22.5,29.35,NE,51,0.0,0.0,16,0.00,,---,0.00,VWS V14.01,2013-06-05 16:32:00,
2013-06-05 12:37:00,70.7,23.8,29.35,ESE,116,0.0,0.0,17,0.00,,---,0.00,VWS V14.01,2013-06-05 16:37:00,
2013-06-05 12:42:00,70.5,23.6,29.35,East,99,0.0,0.0,17,0.00,,---,0.00,VWS V14.01,2013-06-05 16:42:00,
2013-06-05 12:47:00,72.0,23.4,29.35,NNE,23,0.0,0.0,16,0.00,,---,0.00,VWS V14.01,2013-06-05 16:47:00,
2013-06-05 12:52:00,72.5,23.8,29.35,NE,48,0.0,0.0,16,0.00,,---,0.00,VWS V14.01,2013-06-05 16:52:00,
2013-06-05 12:58:00,74.1,25.1,29.35,ENE,60,4.0,4.0,16,0.00,,---,0.00,VWS V14.01,2013-06-05 16:58:00,
2013-06-05 13:03:00,74.7,24.0,29.35,ENE,58,0.0,0.0,15,0.00,,---,0.00,VWS V14.01,2013-06-05 17:03:00,
2013-06-05 13:08:00,75.6,24.7,29.35,ENE,72,0.0,0.0,15,0.00,,---,0.00,VWS V14.01,2013-06-05 17:08:00,
2013-06-05 13:13:00,75.4,24.6,29.35,East,91,4.5,4.5,15,0.00,,---,0.00,VWS V14.01,2013-06-05 17:13:00,
2013-06-05 13:18:00,75.4,24.6,29.35,ENE,72,0.0,5.4,15,0.00,,---,0.00,VWS V14.01,2013-06-05 17:18:00,
2013-06-05 13:23:00,74.5,23.8,29.35,ESE,105,0.0,0.0,15,0.00,,---,0.00,VWS V14.01,2013-06-05 17:23:00,
2013-06-05 13:28:00,72.5,23.8,29.35,East,100,0.0,0.0,16,0.00,,---,0.00,VWS V14.01,2013-06-05 17:28:00,
2013-06-05 13:33:00,70.9,26.6,29.35,East,91,0.0,0.0,19,0.00,,---,0.00,VWS V14.01,2013-06-05 17:33:00,
2013-06-05 13:38:00,70.2,23.4,29.35,ESE,117,0.0,0.0,17,0.00,,---,0.00,VWS V14.01,2013-06-05 17:38:00,
2013-06-05 13:43:00,69.8,25.7,29.35,ESE,116,0.0,0.0,19,0.00,,---,0.00,VWS V14.01,2013-06-05 17:43:00,
2013-06-05 13:48:00,69.6,29.1,29.32,NNE,25,0.0,0.0,22,0.00,,---,0.00,VWS V14.01,2013-06-05 17:48:00,
2013-06-05 13:53:00,70.9,30.2,29.32,NE,54,0.0,0.0,22,0.00,,---,0.00,VWS V14.01,2013-06-05 17:53:00,
2013-06-05 13:58:00,71.8,23.2,29.32,ESE,108,0.0,0.0,16,0.00,,---,0.00,VWS V14.01,2013-06-05 17:58:00,
2013-06-05 14:03:00,71.2,22.8,29.32,East,101,0.0,0.0,16,0.00,,---,0.00,VWS V14.01,2013-06-05 18:03:00,
2013-06-05 14:08:00,70.7,26.5,29.32,East,95,0.0,0.0,19,0.00,,---,0.00,VWS V14.01,2013-06-05 18:08:00,
2013-06-05 14:13:00,71.1,26.8,29.32,ENE,73,0.0,0.0,19,0.00,,---,0.00,VWS V14.01,2013-06-05 18:13:00,
2013-06-05 14:18:00,71.2,26.9,29.32,ESE,106,0.0,0.0,19,0.00,,---,0.00,VWS V14.01,2013-06-05 18:18:00,
2013-06-05 14:23:00,70.7,23.8,29.32,NE,55,0.0,0.0,17,0.00,,---,0.00,VWS V14.01,2013-06-05 18:23:00,
2013-06-05 14:28:00,70.9,22.5,29.32,ESE,112,0.0,3.6,16,0.00,,---,0.00,VWS V14.01,2013-06-05 18:28:00,
2013-06-05 14:33:00,71.4,22.9,29.32,East,80,0.0,0.0,16,0.00,,---,0.00,VWS V14.01,2013-06-05 18:33:00,
2013-06-05 14:38:00,71.6,27.2,29.32,ENE,77,3.1,4.5,19,0.00,,---,0.00,VWS V14.01,2013-06-05 18:38:00,
2013-06-05 14:43:00,71.2,26.9,29.32,SSE,166,0.0,0.0,19,0.00,,---,0.00,VWS V14.01,2013-06-05 18:43:00,
2013-06-05 14:48:00,70.3,23.5,29.32,ENE,75,3.1,4.9,17,0.00,,---,0.00,VWS V14.01,2013-06-05 18:48:00,
2013-06-05 14:53:00,70.0,23.2,29.32,ENE,57,0.0,3.1,17,0.00,,---,0.00,VWS V14.01,2013-06-05 18:53:00,
2013-06-05 14:58:00,69.8,25.7,29.32,ESE,117,0.0,0.0,19,0.00,,---,0.00,VWS V14.01,2013-06-05 18:58:00,
2013-06-05 15:03:00,69.3,28.8,29.32,SE,138,0.0,3.1,22,0.00,,---,0.00,VWS V14.01,2013-06-05 19:03:00,
2013-06-05 15:08:00,68.9,26.2,29.32,East,87,0.0,0.0,20,0.00,,---,0.00,VWS V14.01,2013-06-05 19:08:00,
2013-06-05 15:13:00,68.7,26.1,29.32,East,97,0.0,0.0,20,0.00,,---,0.00,VWS V14.01,2013-06-05 19:13:00,
2013-06-05 15:18:00,68.5,25.9,29.29,ENE,71,0.0,0.0,20,0.00,,---,0.00,VWS V14.01,2013-06-05 19:18:00,
2013-06-05 15:23:00,68.4,25.8,29.29,East,80,0.0,0.0,20,0.00,,---,0.00,VWS V14.01,2013-06-05 19:23:00,
2013-06-05 15:28:00,68.5,28.2,29.29,East,98,0.0,3.6,22,0.00,,---,0.00,VWS V14.01,2013-06-05 19:28:00,
2013-06-05 15:33:00,68.5,28.2,29.29,East,98,0.0,0.0,22,0.00,,---,0.00,VWS V14.01,2013-06-05 19:33:00,
2013-06-05 15:38:00,68.7,28.4,29.29,North,0,0.0,0.0,22,0.00,,---,0.00,VWS V14.01,2013-06-05 19:38:00,
2013-06-05 15:43:00,68.9,26.2,29.29,SE,142,0.0,4.5,20,0.00,,---,0.00,VWS V14.01,2013-06-05 19:43:00,
2013-06-05 15:48:00,69.1,25.1,29.29,ENE,70,0.0,0.0,19,0.00,,---,0.00,VWS V14.01,2013-06-05 19:48:00,
2013-06-05 15:53:00,69.1,25.1,29.29,ENE,75,0.0,0.0,19,0.00,,---,0.00,VWS V14.01,2013-06-05 19:53:00,
2013-06-05 15:58:00,69.1,25.1,29.29,ENE,60,0.0,0.0,19,0.00,,---,0.00,VWS V14.01,2013-06-05 19:58:00,
2013-06-05 16:03:00,69.1,25.1,29.29,East,91,0.0,0.0,19,0.00,,---,0.00,VWS V14.01,2013-06-05 20:03:00,
2013-06-05 16:08:00,69.1,22.5,29.29,ENE,77,0.0,0.0,17,0.00,,---,0.00,VWS V14.01,2013-06-05 20:08:00,
2013-06-05 16:13:00,69.1,22.5,29.29,SSE,165,0.0,0.0,17,0.00,,---,0.00,VWS V14.01,2013-06-05 20:13:00,
2013-06-05 16:18:00,69.3,25.3,29.29,ESE,109,3.1,4.0,19,0.00,,---,0.00,VWS V14.01,2013-06-05 20:18:00,
2013-06-05 16:23:00,69.3,22.6,29.29,NE,54,0.0,0.0,17,0.00,,---,0.00,VWS V14.01,2013-06-05 20:23:00,
2013-06-05 16:28:00,69.3,25.3,29.29,SE,124,0.0,2.7,19,0.00,,---,0.00,VWS V14.01,2013-06-05 20:28:00,
2013-06-05 16:33:00,69.1,22.5,29.29,East,92,0.0,0.0,17,0.00,,---,0.00,VWS V14.01,2013-06-05 20:33:00,
2013-06-05 16:38:00,68.9,22.3,29.29,ESE,122,0.0,2.7,17,0.00,,---,0.00,VWS V14.01,2013-06-05 20:38:00,
2013-06-05 16:43:00,68.7,26.1,29.29,NE,56,0.0,0.0,20,0.00,,---,0.00,VWS V14.01,2013-06-05 20:43:00,
2013-06-05 16:48:00,68.5,25.9,29.29,SSE,152,0.0,0.0,20,0.00,,---,0.00,VWS V14.01,2013-06-05 20:48:00,
2013-06-05 16:53:00,68.4,25.8,29.29,SE,124,0.0,0.0,20,0.00,,---,0.00,VWS V14.01,2013-06-05 20:53:00,
2013-06-05 16:58:00,68.5,22.0,29.29,SSE,153,0.0,3.6,17,0.00,,---,0.00,VWS V14.01,2013-06-05 20:58:00,
2013-06-05 17:03:00,68.5,22.0,29.29,ESE,122,0.0,0.0,17,0.00,,---,0.00,VWS V14.01,2013-06-05 21:03:00,
2013-06-05 17:09:00,68.5,25.9,29.29,NE,55,0.0,2.7,20,0.00,,---,0.00,VWS V14.01,2013-06-05 21:09:00,
2013-06-05 17:14:00,68.4,25.8,29.29,NNW,347,0.0,0.0,20,0.00,,---,0.00,VWS V14.01,2013-06-05 21:14:00,
2013-06-05 17:19:00,68.4,21.9,29.29,ENE,75,3.1,3.1,17,0.00,,---,0.00,VWS V14.01,2013-06-05 21:19:00,
2013-06-05 17:24:00,68.4,21.9,29.29,ENE,61,0.0,0.0,17,0.00,,---,0.00,VWS V14.01,2013-06-05 21:24:00,
2013-06-05 17:29:00,68.4,21.9,29.29,ENE,67,0.0,0.0,17,0.00,,---,0.00,VWS V14.01,2013-06-05 21:29:00,
2013-06-05 17:34:00,68.2,21.7,29.29,SE,140,0.0,3.1,17,0.00,,---,0.00,VWS V14.01,2013-06-05 21:34:00,
2013-06-05 17:39:00,68.2,21.7,29.29,ESE,112,0.0,3.6,17,0.00,,---,0.00,VWS V14.01,2013-06-05 21:39:00,
2013-06-05 17:44:00,68.2,21.7,29.29,SE,132,2.7,2.7,17,0.00,,---,0.00,VWS V14.01,2013-06-05 21:44:00,
2013-06-05 17:49:00,68.2,21.7,29.29,SSE,152,0.0,2.7,17,0.00,,---,0.00,VWS V14.01,2013-06-05 21:49:00,
2013-06-05 17:54:00,68.0,21.6,29.29,SE,139,0.0,0.0,17,0.00,,---,0.00,VWS V14.01,2013-06-05 21:54:00,
2013-06-05 17:59:00,68.0,25.5,29.29,SE,131,6.7,6.7,20,0.00,,---,0.00,VWS V14.01,2013-06-05 21:59:00,
2013-06-05 18:04:00,67.8,27.6,29.29,SE,129,0.0,4.5,22,0.00,,---,0.00,VWS V14.01,2013-06-05 22:04:00,
2013-06-05 18:09:00,67.6,27.5,29.29,SE,138,2.7,3.6,22,0.00,,---,0.00,VWS V14.01,2013-06-05 22:09:00,
2013-06-05 18:14:00,67.5,27.3,29.29,East,94,0.0,0.0,22,0.00,,---,0.00,VWS V14.01,2013-06-05 22:14:00,
2013-06-05 18:19:00,67.5,27.3,29.29,SE,139,0.0,0.0,22,0.00,,---,0.00,VWS V14.01,2013-06-05 22:19:00,
2013-06-05 18:24:00,67.3,28.2,29.29,SE,138,0.0,0.0,23,0.00,,---,0.00,VWS V14.01,2013-06-05 22:24:00,
2013-06-05 18:29:00,67.3,28.2,29.29,ESE,105,0.0,4.5,23,0.00,,---,0.00,VWS V14.01,2013-06-05 22:29:00,
2013-06-05 18:34:00,67.3,28.2,29.29,ESE,104,0.0,0.0,23,0.00,,---,0.00,VWS V14.01,2013-06-05 22:34:00,
2013-06-05 18:39:00,67.3,28.2,29.29,SE,124,0.0,3.1,23,0.00,,---,0.00,VWS V14.01,2013-06-05 22:39:00,
2013-06-05 18:44:00,67.3,28.2,29.29,ENE,63,4.5,5.4,23,0.00,,---,0.00,VWS V14.01,2013-06-05 22:44:00,
2013-06-05 18:49:00,66.9,27.9,29.29,NE,51,0.0,0.0,23,0.00,,---,0.00,VWS V14.01,2013-06-05 22:49:00,
2013-06-05 18:54:00,66.7,27.8,29.29,SSE,166,0.0,4.0,23,0.00,,---,0.00,VWS V14.01,2013-06-05 22:54:00,
2013-06-05 18:59:00,66.4,27.5,29.29,SSW,195,3.1,5.8,23,0.00,,---,0.00,VWS V14.01,2013-06-05 22:59:00,
2013-06-05 19:04:00,66.4,28.5,29.29,SE,142,2.7,4.5,24,0.00,,---,0.00,VWS V14.01,2013-06-05 23:04:00,
2013-06-05 19:09:00,66.0,28.2,29.29,SSE,150,2.7,5.8,24,0.00,,---,0.00,VWS V14.01,2013-06-05 23:09:00,
2013-06-05 19:14:00,65.8,27.0,29.29,ESE,115,0.0,0.0,23,0.00,,---,0.00,VWS V14.01,2013-06-05 23:14:00,
2013-06-05 19:19:00,65.7,27.9,29.29,South,170,0.0,4.5,24,0.00,,---,0.00,VWS V14.01,2013-06-05 23:19:00,
2013-06-05 19:24:00,65.5,27.8,29.29,East,97,3.1,4.5,24,0.00,,---,0.00,VWS V14.01,2013-06-05 23:24:00,
2013-06-05 19:29:00,65.1,27.5,29.29,ESE,113,0.0,0.0,24,0.00,,---,0.00,VWS V14.01,2013-06-05 23:29:00,
2013-06-05 19:34:00,64.9,27.3,29.29,SE,125,0.0,4.5,24,0.00,,---,0.00,VWS V14.01,2013-06-05 23:34:00,
2013-06-05 19:39:00,64.6,27.0,29.29,ENE,72,0.0,0.0,24,0.00,,---,0.00,VWS V14.01,2013-06-05 23:39:00,
2013-06-05 19:44:00,64.4,26.9,29.29,NE,48,0.0,0.0,24,0.00,,---,0.00,VWS V14.01,2013-06-05 23:44:00,
2013-06-05 19:49:00,64.2,26.7,29.29,ENE,66,0.0,0.0,24,0.00,,---,0.00,VWS V14.01,2013-06-05 23:49:00,
2013-06-05 19:54:00,63.9,26.4,29.29,East,81,0.0,0.0,24,0.00,,---,0.00,VWS V14.01,2013-06-05 23:54:00,
2013-06-05 19:59:00,63.7,26.2,29.29,East,81,0.0,0.0,24,0.00,,---,0.00,VWS V14.01,2013-06-05 23:59:00,
2013-06-05 20:04:00,63.5,27.1,29.29,SE,131,0.0,3.6,25,0.00,,---,0.00,VWS V14.01,2013-06-06 00:04:00,
2013-06-05 20:09:00,63.1,26.8,29.29,ENE,70,0.0,0.0,25,0.00,,---,0.00,VWS V14.01,2013-06-06 00:09:00,
2013-06-05 20:14:00,63.0,27.6,29.29,ESE,109,0.0,0.0,26,0.00,,---,0.00,VWS V14.01,2013-06-06 00:14:00,
2013-06-05 20:19:00,62.6,27.3,29.29,ESE,109,0.0,0.0,26,0.00,,---,0.00,VWS V14.01,2013-06-06 00:19:00,
2013-06-05 20:24:00,62.4,28.0,29.29,ESE,109,0.0,0.0,27,0.00,,---,0.00,VWS V14.01,2013-06-06 00:24:00,
2013-06-05 20:29:00,62.1,28.6,29.29,ESE,108,0.0,0.0,28,0.00,,---,0.00,VWS V14.01,2013-06-06 00:29:00,
2013-06-05 20:34:00,61.7,28.3,29.29,East,97,0.0,0.0,28,0.00,,---,0.00,VWS V14.01,2013-06-06 00:34:00,
2013-06-05 20:39:00,61.5,28.1,29.29,East,97,0.0,0.0,28,0.00,,---,0.00,VWS V14.01,2013-06-06 00:39:00,
2013-06-05 20:44:00,61.3,28.0,29.29,East,97,0.0,0.0,28,0.00,,---,0.00,VWS V14.01,2013-06-06 00:44:00,
2013-06-05 20:49:00,61.0,28.5,29.29,East,97,0.0,0.0,29,0.00,,---,0.00,VWS V14.01,2013-06-06 00:49:00,
2013-06-05 20:54:00,61.0,28.5,29.29,East,97,0.0,0.0,29,0.00,,---,0.00,VWS V14.01,2013-06-06 00:54:00,
2013-06-05 20:59:00,60.6,28.2,29.29,East,97,0.0,0.0,29,0.00,,---,0.00,VWS V14.01,2013-06-06 00:59:00,
2013-06-05 21:04:00,60.4,28.1,29.29,East,97,0.0,0.0,29,0.00,,---,0.00,VWS V14.01,2013-06-06 01:04:00,
2013-06-05 21:09:00,60.3,27.9,29.29,East,97,0.0,0.0,29,0.00,,---,0.00,VWS V14.01,2013-06-06 01:09:00,
2013-06-05 21:14:00,60.1,28.6,29.29,East,97,0.0,0.0,30,0.00,,---,0.00,VWS V14.01,2013-06-06 01:14:00,
2013-06-05 21:19:00,59.9,28.4,29.32,East,97,0.0,0.0,30,0.00,,---,0.00,VWS V14.01,2013-06-06 01:19:00,
2013-06-05 21:24:00,59.7,28.3,29.32,East,97,0.0,0.0,30,0.00,,---,0.00,VWS V14.01,2013-06-06 01:24:00,
2013-06-05 21:29:00,59.5,28.1,29.32,East,97,0.0,0.0,30,0.00,,---,0.00,VWS V14.01,2013-06-06 01:29:00,
2013-06-05 21:34:00,59.4,27.9,29.32,East,97,0.0,0.0,30,0.00,,---,0.00,VWS V14.01,2013-06-06 01:34:00,
2013-06-05 21:39:00,59.2,27.8,29.32,East,97,0.0,0.0,30,0.00,,---,0.00,VWS V14.01,2013-06-06 01:39:00,
2013-06-05 21:44:00,59.0,28.4,29.32,East,97,0.0,0.0,31,0.00,,---,0.00,VWS V14.01,2013-06-06 01:44:00,
2013-06-05 21:49:00,58.8,28.3,29.32,East,97,0.0,0.0,31,0.00,,---,0.00,VWS V14.01,2013-06-06 01:49:00,
2013-06-05 21:54:00,58.8,29.0,29.32,East,97,0.0,0.0,32,0.00,,---,0.00,VWS V14.01,2013-06-06 01:54:00,
2013-06-05 21:59:00,58.6,28.9,29.32,East,97,0.0,0.0,32,0.00,,---,0.00,VWS V14.01,2013-06-06 01:59:00,
2013-06-05 22:04:00,58.6,28.9,29.32,East,97,0.0,0.0,32,0.00,,---,0.00,VWS V14.01,2013-06-06 02:04:00,
2013-06-05 22:09:00,58.5,29.5,29.32,East,97,0.0,0.0,33,0.00,,---,0.00,VWS V14.01,2013-06-06 02:09:00,
2013-06-05 22:14:00,58.5,29.5,29.32,East,97,0.0,0.0,33,0.00,,---,0.00,VWS V14.01,2013-06-06 02:14:00,
2013-06-05 22:19:00,58.3,30.1,29.32,East,97,0.0,0.0,34,0.00,,---,0.00,VWS V14.01,2013-06-06 02:19:00,
2013-06-05 22:24:00,58.3,30.1,29.32,East,97,0.0,0.0,34,0.00,,---,0.00,VWS V14.01,2013-06-06 02:24:00,
2013-06-05 22:29:00,58.1,29.9,29.32,East,97,0.0,0.0,34,0.00,,---,0.00,VWS V14.01,2013-06-06 02:29:00,
2013-06-05 22:34:00,57.9,29.7,29.32,East,96,0.0,0.0,34,0.00,,---,0.00,VWS V14.01,2013-06-06 02:34:00,
2013-06-05 22:39:00,57.9,30.5,29.32,East,97,0.0,0.0,35,0.00,,---,0.00,VWS V14.01,2013-06-06 02:39:00,
2013-06-05 22:44:00,57.9,30.5,29.32,ESE,119,0.0,0.0,35,0.00,,---,0.00,VWS V14.01,2013-06-06 02:44:00,
2013-06-05 22:49:00,57.7,30.3,29.32,ESE,119,0.0,0.0,35,0.00,,---,0.00,VWS V14.01,2013-06-06 02:49:00,
2013-06-05 22:54:00,57.6,30.1,29.32,ESE,119,0.0,0.0,35,0.00,,---,0.00,VWS V14.01,2013-06-06 02:54:00,
2013-06-05 22:59:00,57.4,30.0,29.32,ESE,119,0.0,0.0,35,0.00,,---,0.00,VWS V14.01,2013-06-06 02:59:00,
2013-06-05 23:04:00,57.4,30.0,29.32,ESE,119,0.0,0.0,35,0.00,,---,0.00,VWS V14.01,2013-06-06 03:04:00,
2013-06-05 23:09:00,57.4,30.0,29.32,ESE,119,0.0,0.0,35,0.00,,---,0.00,VWS V14.01,2013-06-06 03:09:00,
2013-06-05 23:14:00,57.2,29.8,29.32,ESE,119,0.0,0.0,35,0.00,,---,0.00,VWS V14.01,2013-06-06 03:14:00,
2013-06-05 23:19:00,57.2,30.5,29.32,ESE,119,0.0,0.0,36,0.00,,---,0.00,VWS V14.01,2013-06-06 03:19:00,
2013-06-05 23:24:00,57.0,30.4,29.32,SE,142,0.0,0.0,36,0.00,,---,0.00,VWS V14.01,2013-06-06 03:24:00,
2013-06-05 23:29:00,57.0,30.4,29.32,SE,143,0.0,3.1,36,0.00,,---,0.00,VWS V14.01,2013-06-06 03:29:00,
2013-06-05 23:34:00,57.0,30.4,29.32,SE,143,0.0,0.0,36,0.00,,---,0.00,VWS V14.01,2013-06-06 03:34:00,
2013-06-05 23:39:00,57.0,30.4,29.32,SE,146,0.0,3.1,36,0.00,,---,0.00,VWS V14.01,2013-06-06 03:39:00,
2013-06-05 23:44:00,57.2,30.5,29.32,SE,146,0.0,0.0,36,0.00,,---,0.00,VWS V14.01,2013-06-06 03:44:00,
2013-06-05 23:49:00,57.2,31.2,29.32,SE,146,0.0,0.0,37,0.00,,---,0.00,VWS V14.01,2013-06-06 03:49:00,
2013-06-05 23:54:00,57.2,31.2,29.32,SE,146,0.0,0.0,37,0.00,,---,0.00,VWS V14.01,2013-06-06 03:54:00,
2013-06-05 23:59:00,57.2,31.2,29.32,SE,146,0.0,0.0,37,0.00,,---,0.00,VWS V14.01,2013-06-06 03:59:00,